createdAt,value
2016-10-16T00:00:07.259Z,956.7
2016-10-16T00:01:07.282Z,956.72
2016-10-16T00:02:07.304Z,956.72
2016-10-16T00:03:07.327Z,956.74
2016-10-16T00:04:07.348Z,956.77
2016-10-16T00:05:07.370Z,956.8
2016-10-16T00:06:07.394Z,956.79
2016-10-16T00:07:07.414Z,956.8
2016-10-16T00:08:07.438Z,956.81
2016-10-16T00:09:07.461Z,956.83
2016-10-16T00:10:07.482Z,956.8
2016-10-16T00:11:07.505Z,956.81
2016-10-16T00:12:07.529Z,956.85
2016-10-16T00:13:07.559Z,956.82
2016-10-16T00:14:07.571Z,956.83
2016-10-16T00:15:07.594Z,956.81
2016-10-16T00:16:07.616Z,956.82
2016-10-16T00:17:07.647Z,956.85
2016-10-16T00:18:07.660Z,956.82
2016-10-16T00:19:07.683Z,956.83
2016-10-16T00:20:07.705Z,956.84
2016-10-16T00:21:07.726Z,956.86
2016-10-16T00:22:07.747Z,956.88
2016-10-16T00:23:07.779Z,956.88
2016-10-16T00:24:07.791Z,956.89
2016-10-16T00:25:07.816Z,956.91
2016-10-16T00:26:07.836Z,956.9
2016-10-16T00:27:07.858Z,956.93
2016-10-16T00:28:07.972Z,956.91
2016-10-16T00:29:07.903Z,956.93
2016-10-16T00:30:07.925Z,956.93
2016-10-16T00:31:07.946Z,956.95
2016-10-16T00:32:07.967Z,956.94
2016-10-16T00:33:07.991Z,956.95
2016-10-16T00:34:08.013Z,956.94
2016-10-16T00:35:08.033Z,956.96
2016-10-16T00:36:08.057Z,956.95
2016-10-16T00:37:08.079Z,956.93
2016-10-16T00:38:08.100Z,956.93
2016-10-16T00:39:08.122Z,956.95
2016-10-16T00:40:08.145Z,956.95
2016-10-16T00:41:08.167Z,956.95
2016-10-16T00:42:08.190Z,956.93
2016-10-16T00:43:08.219Z,956.96
2016-10-16T00:44:08.234Z,956.93
2016-10-16T00:45:08.256Z,956.92
2016-10-16T00:46:08.282Z,956.92
2016-10-16T00:47:08.316Z,956.93
2016-10-16T00:48:08.322Z,956.93
2016-10-16T00:49:08.343Z,956.9
2016-10-16T00:50:08.366Z,956.9
2016-10-16T00:51:08.388Z,956.88
2016-10-16T00:52:08.426Z,956.88
2016-10-16T00:53:08.431Z,956.86
2016-10-16T00:54:08.452Z,956.9
2016-10-16T00:55:08.476Z,956.87
2016-10-16T00:56:08.497Z,956.9
2016-10-16T00:57:08.519Z,956.85
2016-10-16T00:58:08.541Z,956.86
2016-10-16T00:59:08.564Z,956.87
2016-10-16T01:00:08.586Z,956.88
2016-10-16T01:01:08.607Z,956.85
2016-10-16T01:02:08.629Z,956.88
2016-10-16T01:03:08.652Z,956.87
2016-10-16T01:04:08.673Z,956.86
2016-10-16T01:05:08.696Z,956.85
2016-10-16T01:06:08.717Z,956.9
2016-10-16T01:07:08.739Z,956.87
2016-10-16T01:08:08.761Z,956.92
2016-10-16T01:09:08.783Z,956.9
2016-10-16T01:10:08.805Z,956.92
2016-10-16T01:11:08.828Z,956.93
2016-10-16T01:12:08.848Z,956.91
2016-10-16T01:13:08.871Z,956.94
2016-10-16T01:14:08.893Z,956.92
2016-10-16T01:15:08.922Z,956.89
2016-10-16T01:16:08.936Z,956.92
2016-10-16T01:17:08.959Z,956.95
2016-10-16T01:18:08.981Z,956.92
2016-10-16T01:19:09.003Z,956.94
2016-10-16T01:20:09.025Z,956.97
2016-10-16T01:21:09.047Z,956.95
2016-10-16T01:22:09.070Z,956.98
2016-10-16T01:23:09.091Z,956.94
2016-10-16T01:24:09.113Z,956.95
2016-10-16T01:25:09.136Z,956.91
2016-10-16T01:26:09.156Z,956.93
2016-10-16T01:27:09.179Z,956.94
2016-10-16T01:28:09.202Z,956.93
2016-10-16T01:29:09.224Z,956.91
2016-10-16T01:30:09.263Z,956.95
2016-10-16T01:31:09.267Z,956.98
2016-10-16T01:32:09.289Z,956.95
2016-10-16T01:33:09.311Z,957.01
2016-10-16T01:34:09.333Z,956.95
2016-10-16T01:35:09.355Z,956.98
2016-10-16T01:36:09.378Z,956.97
2016-10-16T01:37:09.399Z,956.99
2016-10-16T01:38:09.421Z,957
2016-10-16T01:39:09.454Z,957.01
2016-10-16T01:40:09.467Z,956.96
2016-10-16T01:41:09.487Z,957.01
2016-10-16T01:42:09.509Z,957.01
2016-10-16T01:43:09.540Z,956.98
2016-10-16T01:44:09.554Z,956.98
2016-10-16T01:45:09.575Z,956.97
2016-10-16T01:46:09.597Z,956.99
2016-10-16T01:47:09.619Z,956.94
2016-10-16T01:48:09.641Z,956.92
2016-10-16T01:49:09.664Z,956.91
2016-10-16T01:50:09.686Z,956.91
2016-10-16T01:51:09.711Z,956.93
2016-10-16T01:52:09.728Z,956.91
2016-10-16T01:53:09.757Z,956.89
2016-10-16T01:54:09.772Z,956.92
2016-10-16T01:55:09.796Z,956.89
2016-10-16T01:56:09.815Z,956.93
2016-10-16T01:57:09.839Z,956.92
2016-10-16T01:58:09.861Z,956.87
2016-10-16T01:59:09.881Z,956.92
2016-10-16T02:00:09.904Z,956.89
2016-10-16T02:01:09.930Z,956.87
2016-10-16T02:02:09.949Z,956.86
2016-10-16T02:03:09.970Z,956.87
2016-10-16T02:04:09.993Z,956.87
2016-10-16T02:05:10.015Z,956.95
2016-10-16T02:06:10.038Z,956.9
2016-10-16T02:07:10.067Z,956.94
2016-10-16T02:08:10.080Z,956.85
2016-10-16T02:09:10.103Z,956.89
2016-10-16T02:10:10.124Z,956.87
2016-10-16T02:11:10.147Z,956.89
2016-10-16T02:12:10.168Z,956.9
2016-10-16T02:13:10.192Z,956.84
2016-10-16T02:14:10.212Z,956.86
2016-10-16T02:15:10.233Z,956.9
2016-10-16T02:16:10.261Z,956.86
2016-10-16T02:17:10.279Z,956.93
2016-10-16T02:18:10.301Z,956.91
2016-10-16T02:19:10.323Z,956.88
2016-10-16T02:20:10.345Z,956.96
2016-10-16T02:21:10.365Z,956.92
2016-10-16T02:22:10.388Z,956.93
2016-10-16T02:23:10.411Z,956.88
2016-10-16T02:24:10.441Z,956.9
2016-10-16T02:25:10.463Z,956.91
2016-10-16T02:26:10.477Z,956.89
2016-10-16T02:27:10.499Z,956.89
2016-10-16T02:28:10.520Z,956.88
2016-10-16T02:29:10.542Z,956.85
2016-10-16T02:30:10.564Z,956.86
2016-10-16T02:31:10.587Z,956.88
2016-10-16T02:32:10.627Z,956.87
2016-10-16T02:33:10.668Z,956.8
2016-10-16T02:34:10.654Z,956.82
2016-10-16T02:35:10.674Z,956.83
2016-10-16T02:36:10.697Z,956.82
2016-10-16T02:37:10.719Z,956.8
2016-10-16T02:38:10.740Z,956.81
2016-10-16T02:39:10.764Z,956.79
2016-10-16T02:40:10.790Z,956.81
2016-10-16T02:41:10.812Z,956.83
2016-10-16T02:42:10.830Z,956.82
2016-10-16T02:43:10.851Z,956.81
2016-10-16T02:44:10.873Z,956.81
2016-10-16T02:45:10.896Z,956.86
2016-10-16T02:46:10.918Z,956.81
2016-10-16T02:47:10.939Z,956.83
2016-10-16T02:48:10.962Z,956.84
2016-10-16T02:49:10.984Z,956.87
2016-10-16T02:50:11.004Z,956.83
2016-10-16T02:51:11.027Z,956.85
2016-10-16T02:52:11.050Z,956.84
2016-10-16T02:53:11.072Z,956.87
2016-10-16T02:54:11.093Z,956.88
2016-10-16T02:55:11.126Z,956.89
2016-10-16T02:56:11.137Z,956.89
2016-10-16T02:57:11.160Z,956.9
2016-10-16T02:58:11.181Z,956.95
2016-10-16T02:59:11.203Z,956.92
2016-10-16T03:00:11.225Z,956.95
2016-10-16T03:01:11.246Z,956.99
2016-10-16T03:02:11.269Z,957.01
2016-10-16T03:03:11.296Z,957.03
2016-10-16T03:04:11.313Z,957.03
2016-10-16T03:05:11.333Z,957.04
2016-10-16T03:06:11.356Z,957.02
2016-10-16T03:07:11.378Z,957.01
2016-10-16T03:08:11.400Z,957.03
2016-10-16T03:09:11.420Z,957.03
2016-10-16T03:10:11.443Z,957.04
2016-10-16T03:11:11.465Z,957.04
2016-10-16T03:12:11.486Z,957.03
2016-10-16T03:13:11.508Z,957.03
2016-10-16T03:14:11.529Z,957.05
2016-10-16T03:15:11.552Z,957.07
2016-10-16T03:16:11.573Z,957.04
2016-10-16T03:17:11.593Z,957
2016-10-16T03:18:11.624Z,957.03
2016-10-16T03:19:11.637Z,957.07
2016-10-16T03:20:11.659Z,957.09
2016-10-16T03:21:11.681Z,957.08
2016-10-16T03:22:11.703Z,957.14
2016-10-16T03:23:11.725Z,957.09
2016-10-16T03:24:11.745Z,957.14
2016-10-16T03:25:11.768Z,957.15
2016-10-16T03:26:11.790Z,957.15
2016-10-16T03:27:11.811Z,957.18
2016-10-16T03:28:11.833Z,957.14
2016-10-16T03:29:11.855Z,957.1
2016-10-16T03:30:11.876Z,957.1
2016-10-16T03:31:11.897Z,957.16
2016-10-16T03:32:11.919Z,957.13
2016-10-16T03:33:12.143Z,957.13
2016-10-16T03:34:11.962Z,957.15
2016-10-16T03:35:11.984Z,957.13
2016-10-16T03:36:12.006Z,957.13
2016-10-16T03:37:12.028Z,957.13
2016-10-16T03:38:12.048Z,957.12
2016-10-16T03:39:12.070Z,957.13
2016-10-16T03:40:12.092Z,957.13
2016-10-16T03:41:12.122Z,957.15
2016-10-16T03:42:12.135Z,957.17
2016-10-16T03:43:12.156Z,957.18
2016-10-16T03:44:12.184Z,957.15
2016-10-16T03:45:12.198Z,957.14
2016-10-16T03:46:12.220Z,957.22
2016-10-16T03:47:12.242Z,957.16
2016-10-16T03:48:12.266Z,957.16
2016-10-16T03:49:12.283Z,957.18
2016-10-16T03:50:12.305Z,957.16
2016-10-16T03:51:12.326Z,957.13
2016-10-16T03:52:12.349Z,957.14
2016-10-16T03:53:12.380Z,957.14
2016-10-16T03:54:12.390Z,957.16
2016-10-16T03:55:12.412Z,957.16
2016-10-16T03:56:12.433Z,957.17
2016-10-16T03:57:12.453Z,957.17
2016-10-16T03:58:12.476Z,957.18
2016-10-16T03:59:12.503Z,957.18
2016-10-16T04:00:12.518Z,957.18
2016-10-16T04:01:12.539Z,957.21
2016-10-16T04:02:12.560Z,957.2
2016-10-16T04:03:12.581Z,957.18
2016-10-16T04:04:12.621Z,957.19
2016-10-16T04:05:12.623Z,957.17
2016-10-16T04:06:12.644Z,957.18
2016-10-16T04:07:12.670Z,957.14
2016-10-16T04:08:12.687Z,957.17
2016-10-16T04:09:12.707Z,957.13
2016-10-16T04:10:12.729Z,957.18
2016-10-16T04:11:12.750Z,957.19
2016-10-16T04:12:12.770Z,957.18
2016-10-16T04:13:12.792Z,957.15
2016-10-16T04:14:12.812Z,957.21
2016-10-16T04:15:12.834Z,957.21
2016-10-16T04:16:12.855Z,957.25
2016-10-16T04:17:12.926Z,957.22
2016-10-16T04:18:12.896Z,957.23
2016-10-16T04:19:12.919Z,957.25
2016-10-16T04:20:12.938Z,957.25
2016-10-16T04:21:12.960Z,957.26
2016-10-16T04:22:12.983Z,957.23
2016-10-16T04:23:13.002Z,957.3
2016-10-16T04:24:13.022Z,957.28
2016-10-16T04:25:13.043Z,957.26
2016-10-16T04:26:13.064Z,957.27
2016-10-16T04:27:13.085Z,957.28
2016-10-16T04:28:13.106Z,957.27
2016-10-16T04:29:13.127Z,957.3
2016-10-16T04:30:13.148Z,957.3
2016-10-16T04:31:13.170Z,957.3
2016-10-16T04:32:13.190Z,957.29
2016-10-16T04:33:13.210Z,957.29
2016-10-16T04:34:13.243Z,957.3
2016-10-16T04:35:13.269Z,957.3
2016-10-16T04:36:13.272Z,957.32
2016-10-16T04:37:13.312Z,957.3
2016-10-16T04:38:13.349Z,957.33
2016-10-16T04:39:13.335Z,957.34
2016-10-16T04:40:13.355Z,957.34
2016-10-16T04:41:13.376Z,957.31
2016-10-16T04:42:13.398Z,957.3
2016-10-16T04:43:13.419Z,957.28
2016-10-16T04:44:13.441Z,957.32
2016-10-16T04:45:13.461Z,957.32
2016-10-16T04:46:13.481Z,957.3
2016-10-16T04:47:13.501Z,957.34
2016-10-16T04:48:13.522Z,957.36
2016-10-16T04:49:13.543Z,957.32
2016-10-16T04:50:13.565Z,957.37
2016-10-16T04:51:13.584Z,957.4
2016-10-16T04:52:13.605Z,957.37
2016-10-16T04:53:13.627Z,957.37
2016-10-16T04:54:13.647Z,957.37
2016-10-16T04:55:13.667Z,957.38
2016-10-16T04:56:13.689Z,957.42
2016-10-16T04:57:13.710Z,957.42
2016-10-16T04:58:13.730Z,957.4
2016-10-16T04:59:13.750Z,957.41
2016-10-16T05:00:13.772Z,957.38
2016-10-16T05:01:13.793Z,957.42
2016-10-16T05:02:13.814Z,957.37
2016-10-16T05:03:13.835Z,957.37
2016-10-16T05:04:13.854Z,957.38
2016-10-16T05:05:13.895Z,957.38
2016-10-16T05:06:13.897Z,957.42
2016-10-16T05:07:13.917Z,957.41
2016-10-16T05:08:13.939Z,957.4
2016-10-16T05:09:13.963Z,957.41
2016-10-16T05:10:13.993Z,957.42
2016-10-16T05:11:14.000Z,957.39
2016-10-16T05:12:14.022Z,957.4
2016-10-16T05:13:14.042Z,957.43
2016-10-16T05:14:14.070Z,957.42
2016-10-16T05:15:14.084Z,957.41
2016-10-16T05:16:14.105Z,957.43
2016-10-16T05:17:14.132Z,957.46
2016-10-16T05:18:14.146Z,957.49
2016-10-16T05:19:14.168Z,957.43
2016-10-16T05:20:14.190Z,957.46
2016-10-16T05:21:14.209Z,957.46
2016-10-16T05:22:14.230Z,957.45
2016-10-16T05:23:14.250Z,957.48
2016-10-16T05:24:14.269Z,957.45
2016-10-16T05:25:14.291Z,957.47
2016-10-16T05:26:14.312Z,957.53
2016-10-16T05:27:14.333Z,957.53
2016-10-16T05:28:14.355Z,957.52
2016-10-16T05:29:14.375Z,957.53
2016-10-16T05:30:14.396Z,957.51
2016-10-16T05:31:14.416Z,957.54
2016-10-16T05:32:14.438Z,957.54
2016-10-16T05:33:14.458Z,957.53
2016-10-16T05:34:14.479Z,957.56
2016-10-16T05:35:14.516Z,957.53
2016-10-16T05:36:14.520Z,957.51
2016-10-16T05:37:14.541Z,957.57
2016-10-16T05:38:14.562Z,957.52
2016-10-16T05:39:14.581Z,957.5
2016-10-16T05:40:14.602Z,957.48
2016-10-16T05:41:14.622Z,957.52
2016-10-16T05:42:14.643Z,957.53
2016-10-16T05:43:14.672Z,957.51
2016-10-16T05:44:14.686Z,957.53
2016-10-16T05:45:14.705Z,957.52
2016-10-16T05:46:14.725Z,957.53
2016-10-16T05:47:14.746Z,957.57
2016-10-16T05:48:14.767Z,957.57
2016-10-16T05:49:14.787Z,957.57
2016-10-16T05:50:14.811Z,957.58
2016-10-16T05:51:14.827Z,957.59
2016-10-16T05:52:14.849Z,957.54
2016-10-16T05:53:14.869Z,957.55
2016-10-16T05:54:14.890Z,957.59
2016-10-16T05:55:14.911Z,957.53
2016-10-16T05:56:14.931Z,957.56
2016-10-16T05:57:14.952Z,957.6
2016-10-16T05:58:14.972Z,957.58
2016-10-16T05:59:14.992Z,957.55
2016-10-16T06:00:15.012Z,957.57
2016-10-16T06:01:15.033Z,957.61
2016-10-16T06:02:15.056Z,957.62
2016-10-16T06:03:15.075Z,957.68
2016-10-16T06:04:15.094Z,957.66
2016-10-16T06:05:15.115Z,957.72
2016-10-16T06:06:15.135Z,957.71
2016-10-16T06:07:15.157Z,957.73
2016-10-16T06:08:15.177Z,957.75
2016-10-16T06:09:15.197Z,957.78
2016-10-16T06:10:15.217Z,957.75
2016-10-16T06:11:15.238Z,957.79
2016-10-16T06:12:15.259Z,957.81
2016-10-16T06:13:15.291Z,957.81
2016-10-16T06:14:15.299Z,957.79
2016-10-16T06:15:15.319Z,957.85
2016-10-16T06:16:15.340Z,957.84
2016-10-16T06:17:15.361Z,957.87
2016-10-16T06:18:15.382Z,957.9
2016-10-16T06:19:15.401Z,957.93
2016-10-16T06:20:15.421Z,957.95
2016-10-16T06:21:15.449Z,957.93
2016-10-16T06:22:15.463Z,957.96
2016-10-16T06:23:15.482Z,957.96
2016-10-16T06:24:15.504Z,957.95
2016-10-16T06:25:15.524Z,957.96
2016-10-16T06:26:15.543Z,958
2016-10-16T06:27:15.566Z,957.96
2016-10-16T06:28:15.587Z,957.97
2016-10-16T06:29:15.606Z,958.01
2016-10-16T06:30:15.626Z,958.02
2016-10-16T06:31:15.647Z,958.01
2016-10-16T06:32:15.668Z,958.01
2016-10-16T06:33:15.687Z,958.04
2016-10-16T06:34:15.709Z,958
2016-10-16T06:35:15.729Z,958.01
2016-10-16T06:36:15.751Z,958.02
2016-10-16T06:37:15.770Z,958.04
2016-10-16T06:38:15.790Z,958.05
2016-10-16T06:39:15.812Z,958.05
2016-10-16T06:40:15.831Z,958.08
2016-10-16T06:41:15.857Z,958.09
2016-10-16T06:42:15.873Z,958.1
2016-10-16T06:43:15.895Z,958.11
2016-10-16T06:44:15.914Z,958.13
2016-10-16T06:45:15.934Z,958.11
2016-10-16T06:46:15.955Z,958.1
2016-10-16T06:47:15.975Z,958.11
2016-10-16T06:48:15.996Z,958.14
2016-10-16T06:49:16.016Z,958.12
2016-10-16T06:50:16.039Z,958.14
2016-10-16T06:51:16.071Z,958.13
2016-10-16T06:52:16.078Z,958.14
2016-10-16T06:53:16.097Z,958.15
2016-10-16T06:54:16.120Z,958.18
2016-10-16T06:55:16.138Z,958.18
2016-10-16T06:56:16.159Z,958.18
2016-10-16T06:57:16.179Z,958.16
2016-10-16T06:58:16.202Z,958.2
2016-10-16T06:59:16.228Z,958.19
2016-10-16T07:00:16.243Z,958.18
2016-10-16T07:01:16.265Z,958.18
2016-10-16T07:02:16.284Z,958.22
2016-10-16T07:03:16.305Z,958.21
2016-10-16T07:04:16.325Z,958.24
2016-10-16T07:05:16.347Z,958.21
2016-10-16T07:06:16.371Z,958.27
2016-10-16T07:07:16.388Z,958.31
2016-10-16T07:08:16.410Z,958.31
2016-10-16T07:09:16.430Z,958.31
2016-10-16T07:10:16.451Z,958.3
2016-10-16T07:11:16.470Z,958.32
2016-10-16T07:12:16.491Z,958.29
2016-10-16T07:13:16.512Z,958.35
2016-10-16T07:14:16.532Z,958.32
2016-10-16T07:15:16.553Z,958.32
2016-10-16T07:16:16.578Z,958.34
2016-10-16T07:17:16.595Z,958.36
2016-10-16T07:18:16.615Z,958.36
2016-10-16T07:19:16.637Z,958.36
2016-10-16T07:20:16.658Z,958.31
2016-10-16T07:21:16.678Z,958.36
2016-10-16T07:22:16.700Z,958.34
2016-10-16T07:23:16.721Z,958.39
2016-10-16T07:24:16.741Z,958.37
2016-10-16T07:25:16.762Z,958.39
2016-10-16T07:26:16.783Z,958.4
2016-10-16T07:27:16.804Z,958.43
2016-10-16T07:28:16.824Z,958.47
2016-10-16T07:29:16.848Z,958.51
2016-10-16T07:30:16.869Z,958.47
2016-10-16T07:31:16.891Z,958.49
2016-10-16T07:32:16.912Z,958.52
2016-10-16T07:33:16.934Z,958.5
2016-10-16T07:34:16.956Z,958.52
2016-10-16T07:35:16.977Z,958.52
2016-10-16T07:36:17.000Z,958.51
2016-10-16T07:37:17.025Z,958.55
2016-10-16T07:38:17.046Z,958.49
2016-10-16T07:39:17.068Z,958.52
2016-10-16T07:40:17.091Z,958.5
2016-10-16T07:41:17.114Z,958.49
2016-10-16T07:42:17.138Z,958.56
2016-10-16T07:43:17.161Z,958.53
2016-10-16T07:44:17.184Z,958.56
2016-10-16T07:45:17.221Z,958.58
2016-10-16T07:46:17.231Z,958.53
2016-10-16T07:47:17.254Z,958.56
2016-10-16T07:48:17.277Z,958.6
2016-10-16T07:49:17.301Z,958.61
2016-10-16T07:50:17.325Z,958.64
2016-10-16T07:51:17.350Z,958.58
2016-10-16T07:52:17.373Z,958.58
2016-10-16T07:53:17.397Z,958.56
2016-10-16T07:54:17.421Z,958.56
2016-10-16T07:55:17.443Z,958.6
2016-10-16T07:56:17.469Z,958.62
2016-10-16T07:57:17.493Z,958.63
2016-10-16T07:58:17.518Z,958.63
2016-10-16T07:59:17.540Z,958.62
2016-10-16T08:00:17.565Z,958.64
2016-10-16T08:01:17.589Z,958.66
2016-10-16T08:02:17.614Z,958.67
2016-10-16T08:03:17.640Z,958.68
2016-10-16T08:04:17.663Z,958.64
2016-10-16T08:05:17.688Z,958.69
2016-10-16T08:06:17.714Z,958.69
2016-10-16T08:07:17.738Z,958.63
2016-10-16T08:08:17.871Z,958.66
2016-10-16T08:09:17.788Z,958.7
2016-10-16T08:10:17.815Z,958.66
2016-10-16T08:11:17.841Z,958.72
2016-10-16T08:12:17.866Z,958.69
2016-10-16T08:13:17.892Z,958.68
2016-10-16T08:14:17.916Z,958.68
2016-10-16T08:15:17.943Z,958.69
2016-10-16T08:16:17.968Z,958.68
2016-10-16T08:17:17.994Z,958.7
2016-10-16T08:18:18.020Z,958.71
2016-10-16T08:19:18.045Z,958.69
2016-10-16T08:20:18.071Z,958.73
2016-10-16T08:21:18.096Z,958.69
2016-10-16T08:22:18.122Z,958.69
2016-10-16T08:23:18.149Z,958.68
2016-10-16T08:24:18.175Z,958.73
2016-10-16T08:25:18.201Z,958.76
2016-10-16T08:26:18.227Z,958.77
2016-10-16T08:27:18.253Z,958.7
2016-10-16T08:28:18.279Z,958.68
2016-10-16T08:29:18.305Z,958.67
2016-10-16T08:30:18.330Z,958.7
2016-10-16T08:31:18.357Z,958.71
2016-10-16T08:32:18.384Z,958.68
2016-10-16T08:33:18.409Z,958.7
2016-10-16T08:34:18.435Z,958.67
2016-10-16T08:35:18.462Z,958.71
2016-10-16T08:36:18.488Z,958.66
2016-10-16T08:37:18.516Z,958.66
2016-10-16T08:38:18.541Z,958.7
2016-10-16T08:39:18.568Z,958.66
2016-10-16T08:40:18.604Z,958.67
2016-10-16T08:41:18.620Z,958.68
2016-10-16T08:42:18.648Z,958.68
2016-10-16T08:43:18.675Z,958.73
2016-10-16T08:44:18.701Z,958.72
2016-10-16T08:45:18.728Z,958.68
2016-10-16T08:46:18.754Z,958.75
2016-10-16T08:47:18.782Z,958.68
2016-10-16T08:48:18.808Z,958.72
2016-10-16T08:49:18.835Z,958.67
2016-10-16T08:50:18.863Z,958.67
2016-10-16T08:51:18.888Z,958.69
2016-10-16T08:52:18.915Z,958.68
2016-10-16T08:53:18.943Z,958.63
2016-10-16T08:54:18.970Z,958.69
2016-10-16T08:55:18.997Z,958.7
2016-10-16T08:56:19.023Z,958.7
2016-10-16T08:57:19.051Z,958.71
2016-10-16T08:58:19.078Z,958.71
2016-10-16T08:59:19.104Z,958.74
2016-10-16T09:00:19.131Z,958.75
2016-10-16T09:01:19.158Z,958.75
2016-10-16T09:02:19.185Z,958.74
2016-10-16T09:03:19.211Z,958.75
2016-10-16T09:04:19.240Z,958.74
2016-10-16T09:05:19.265Z,958.73
2016-10-16T09:06:19.292Z,958.72
2016-10-16T09:07:19.318Z,958.75
2016-10-16T09:08:19.346Z,958.76
2016-10-16T09:09:19.373Z,958.76
2016-10-16T09:10:19.398Z,958.75
2016-10-16T09:11:19.426Z,958.75
2016-10-16T09:12:19.454Z,958.77
2016-10-16T09:13:19.480Z,958.8
2016-10-16T09:14:19.507Z,958.75
2016-10-16T09:15:19.532Z,958.69
2016-10-16T09:16:19.559Z,958.7
2016-10-16T09:17:19.587Z,958.72
2016-10-16T09:18:19.614Z,958.75
2016-10-16T09:19:19.640Z,958.75
2016-10-16T09:20:19.671Z,958.76
2016-10-16T09:21:19.694Z,958.74
2016-10-16T09:22:19.721Z,958.74
2016-10-16T09:23:19.749Z,958.78
2016-10-16T09:24:19.776Z,958.75
2016-10-16T09:25:19.802Z,958.74
2016-10-16T09:26:19.828Z,958.74
2016-10-16T09:27:19.856Z,958.74
2016-10-16T09:28:19.887Z,958.75
2016-10-16T09:29:19.910Z,958.72
2016-10-16T09:30:19.938Z,958.7
2016-10-16T09:31:19.964Z,958.69
2016-10-16T09:32:19.992Z,958.68
2016-10-16T09:33:20.017Z,958.68
2016-10-16T09:34:20.046Z,958.67
2016-10-16T09:35:20.074Z,958.66
2016-10-16T09:36:20.104Z,958.65
2016-10-16T09:37:20.127Z,958.66
2016-10-16T09:38:20.155Z,958.7
2016-10-16T09:39:20.182Z,958.7
2016-10-16T09:40:20.210Z,958.72
2016-10-16T09:41:20.236Z,958.66
2016-10-16T09:42:20.263Z,958.69
2016-10-16T09:43:20.290Z,958.71
2016-10-16T09:44:20.322Z,958.67
2016-10-16T09:45:20.345Z,958.7
2016-10-16T09:46:20.372Z,958.68
2016-10-16T09:47:20.399Z,958.67
2016-10-16T09:48:20.427Z,958.65
2016-10-16T09:49:20.454Z,958.63
2016-10-16T09:50:20.483Z,958.61
2016-10-16T09:51:20.507Z,958.67
2016-10-16T09:52:20.538Z,958.64
2016-10-16T09:53:20.564Z,958.72
2016-10-16T09:54:20.591Z,958.69
2016-10-16T09:55:20.618Z,958.68
2016-10-16T09:56:20.645Z,958.65
2016-10-16T09:57:20.673Z,958.69
2016-10-16T09:58:20.700Z,958.69
2016-10-16T09:59:20.727Z,958.71
2016-10-16T10:00:20.756Z,958.66
2016-10-16T10:01:20.782Z,958.64
2016-10-16T10:02:20.809Z,958.68
2016-10-16T10:03:20.837Z,958.74
2016-10-16T10:04:20.864Z,958.71
2016-10-16T10:05:20.890Z,958.65
2016-10-16T10:06:20.919Z,958.7
2016-10-16T10:07:20.945Z,958.67
2016-10-16T10:08:20.975Z,958.66
2016-10-16T10:09:21.002Z,958.69
2016-10-16T10:10:21.028Z,958.68
2016-10-16T10:11:21.056Z,958.62
2016-10-16T10:12:21.083Z,958.67
2016-10-16T10:13:21.112Z,958.68
2016-10-16T10:14:21.139Z,958.65
2016-10-16T10:15:21.167Z,958.65
2016-10-16T10:16:21.201Z,958.68
2016-10-16T10:17:21.272Z,958.71
2016-10-16T10:18:21.250Z,958.68
2016-10-16T10:19:21.277Z,958.69
2016-10-16T10:20:21.303Z,958.7
2016-10-16T10:21:21.333Z,958.69
2016-10-16T10:22:21.360Z,958.71
2016-10-16T10:23:21.388Z,958.68
2016-10-16T10:24:21.415Z,958.62
2016-10-16T10:25:21.443Z,958.7
2016-10-16T10:26:21.471Z,958.63
2016-10-16T10:27:21.497Z,958.61
2016-10-16T10:28:21.556Z,958.61
2016-10-16T10:29:21.554Z,958.64
2016-10-16T10:30:21.582Z,958.6
2016-10-16T10:31:21.607Z,958.62
2016-10-16T10:32:21.638Z,958.63
2016-10-16T10:33:21.672Z,958.62
2016-10-16T10:34:21.692Z,958.61
2016-10-16T10:35:21.720Z,958.6
2016-10-16T10:36:21.748Z,958.57
2016-10-16T10:37:21.777Z,958.62
2016-10-16T10:38:21.803Z,958.6
2016-10-16T10:39:21.831Z,958.61
2016-10-16T10:40:21.859Z,958.63
2016-10-16T10:41:21.887Z,958.61
2016-10-16T10:42:21.914Z,958.6
2016-10-16T10:43:21.942Z,958.61
2016-10-16T10:44:21.971Z,958.61
2016-10-16T10:45:21.998Z,958.59
2016-10-16T10:46:22.026Z,958.58
2016-10-16T10:47:22.055Z,958.61
2016-10-16T10:48:22.083Z,958.63
2016-10-16T10:49:22.110Z,958.64
2016-10-16T10:50:22.140Z,958.67
2016-10-16T10:51:22.167Z,958.58
2016-10-16T10:52:22.196Z,958.64
2016-10-16T10:53:22.223Z,958.67
2016-10-16T10:54:22.251Z,958.61
2016-10-16T10:55:22.280Z,958.63
2016-10-16T10:56:22.327Z,958.6
2016-10-16T10:57:22.335Z,958.57
2016-10-16T10:58:22.363Z,958.57
2016-10-16T10:59:22.392Z,958.57
2016-10-16T11:00:22.419Z,958.51
2016-10-16T11:01:22.447Z,958.53
2016-10-16T11:02:22.476Z,958.46
2016-10-16T11:03:22.504Z,958.55
2016-10-16T11:04:22.544Z,958.48
2016-10-16T11:05:22.568Z,958.47
2016-10-16T11:06:22.596Z,958.42
2016-10-16T11:07:22.636Z,958.4
2016-10-16T11:08:22.643Z,958.41
2016-10-16T11:09:22.672Z,958.35
2016-10-16T11:10:22.701Z,958.37
2016-10-16T11:11:22.733Z,958.33
2016-10-16T11:12:22.760Z,958.27
2016-10-16T11:13:22.803Z,958.3
2016-10-16T11:14:22.813Z,958.3
2016-10-16T11:15:22.840Z,958.27
2016-10-16T11:16:22.868Z,958.28
2016-10-16T11:17:22.907Z,958.22
2016-10-16T11:18:22.923Z,958.22
2016-10-16T11:19:22.952Z,958.25
2016-10-16T11:20:23.006Z,958.25
2016-10-16T11:21:23.010Z,958.31
2016-10-16T11:22:24.538Z,958.32
2016-10-16T11:23:23.064Z,958.28
2016-10-16T11:24:23.093Z,958.29
2016-10-16T11:25:23.121Z,958.29
2016-10-16T11:26:23.150Z,958.28
2016-10-16T11:27:23.177Z,958.29
2016-10-16T11:28:23.207Z,958.33
2016-10-16T11:29:23.233Z,958.34
2016-10-16T11:30:23.261Z,958.32
2016-10-16T11:31:23.288Z,958.34
2016-10-16T11:32:23.317Z,958.35
2016-10-16T11:33:23.350Z,958.3
2016-10-16T11:34:23.374Z,958.29
2016-10-16T11:35:23.401Z,958.25
2016-10-16T11:36:23.444Z,958.25
2016-10-16T11:37:23.459Z,958.25
2016-10-16T11:38:23.648Z,958.26
2016-10-16T11:39:23.518Z,958.23
2016-10-16T11:40:23.617Z,958.27
2016-10-16T11:41:23.578Z,958.2
2016-10-16T11:42:23.702Z,958.21
2016-10-16T11:43:23.630Z,958.26
2016-10-16T11:44:23.872Z,958.24
2016-10-16T11:45:23.683Z,958.19
2016-10-16T11:46:23.810Z,958.23
2016-10-16T11:47:23.767Z,958.19
2016-10-16T11:48:23.788Z,958.18
2016-10-16T11:49:23.796Z,958.19
2016-10-16T11:50:23.824Z,958.18
2016-10-16T11:51:23.863Z,958.21
2016-10-16T11:52:24.036Z,958.18
2016-10-16T11:53:23.985Z,958.15
2016-10-16T11:54:24.198Z,958.16
2016-10-16T11:55:23.974Z,958.17
2016-10-16T11:56:24.015Z,958.16
2016-10-16T11:57:24.057Z,958.16
2016-10-16T11:58:24.065Z,958.18
2016-10-16T11:59:24.075Z,958.19
2016-10-16T12:00:24.197Z,958.19
2016-10-16T12:01:24.170Z,958.13
2016-10-16T12:02:24.267Z,958.19
2016-10-16T12:03:24.242Z,958.16
2016-10-16T12:04:24.274Z,958.12
2016-10-16T12:05:24.330Z,958.19
2016-10-16T12:06:24.272Z,958.17
2016-10-16T12:07:24.300Z,958.18
2016-10-16T12:08:24.328Z,958.2
2016-10-16T12:09:24.368Z,958.16
2016-10-16T12:10:24.383Z,958.16
2016-10-16T12:11:24.413Z,958.12
2016-10-16T12:12:24.444Z,958.16
2016-10-16T12:13:24.489Z,958.16
2016-10-16T12:14:24.498Z,958.16
2016-10-16T12:15:24.530Z,958.19
2016-10-16T12:16:24.555Z,958.19
2016-10-16T12:17:24.591Z,958.2
2016-10-16T12:18:24.610Z,958.19
2016-10-16T12:19:24.637Z,958.16
2016-10-16T12:20:24.678Z,958.11
2016-10-16T12:21:24.695Z,958.13
2016-10-16T12:22:24.723Z,958.16
2016-10-16T12:23:24.750Z,958.16
2016-10-16T12:24:24.779Z,958.1
2016-10-16T12:25:24.809Z,958.12
2016-10-16T12:26:24.836Z,958.14
2016-10-16T12:27:24.863Z,958.09
2016-10-16T12:28:24.891Z,958.12
2016-10-16T12:29:24.921Z,958.12
2016-10-16T12:30:24.948Z,958.13
2016-10-16T12:31:24.977Z,958.11